Terminal Aerodrome Forecast
Issued by NWS

Home | Current Version | Previous Version | Text Only | Print | Product List | Glossary On
Versions: 1 2 3 4 5 6 7 8 9 10 11 12 13 14
000
FTUS43 KICT 142322
TAFCNU
TAF
KCNU 142322Z 1500/1524 19009KT P6SM SCT250
     FM150800 20014G24KT P6SM OVC040 WS020/24055KT
     FM151300 20016G24KT P6SM OVC110
     FM152100 25017G25KT P6SM BKN200
     FM152300 31015KT P6SM BKN200=

USA.gov is the U.S. government's official web portal to all federal, state and local government web resources and services.